Time;durP1;ratioP1;P1;durP2;ratioP2;P2;SDS_P1;SDS_P2;PMS_P1;PMS_P2;Temp;Humidity;BMP_temperature;BMP_pressure;BME280_temperature;BME280_humidity;BME280_pressure;Samples;Min_cycle;Max_cycle;Signal;HPM_P1;HPM_P2
2022/05/29 00:02:10;;;;;;;3.78;3.67;;;;;;;7.36;86.61;101258.91;6000378;23;20113;-74
2022/05/29 00:04:41;;;;;;;5.63;5.43;;;;;;;7.57;86.75;101281.75;6041781;23;20052;-75
2022/05/29 00:07:14;;;;;;;3.70;3.60;;;;;;;7.51;86.33;101268.03;6006367;23;20390;-75
2022/05/29 00:09:47;;;;;;;5.68;5.47;;;;;;;7.33;86.48;101245.94;6003386;23;20053;-73
2022/05/29 00:12:15;;;;;;;3.75;3.65;;;;;;;7.46;86.95;101268.19;5969413;23;20228;-74
2022/05/29 00:14:42;;;;;;;4.03;3.83;;;;;;;7.44;87.43;101264.78;6033367;23;20062;-75
2022/05/29 00:17:09;;;;;;;4.10;3.90;;;;;;;7.37;87.96;101266.69;5971591;23;20023;-73
2022/05/29 00:19:36;;;;;;;5.97;5.70;;;;;;;7.46;87.96;101268.19;6036439;23;20042;-74
2022/05/29 00:22:04;;;;;;;3.60;3.50;;;;;;;7.11;87.21;101217.84;6002895;23;20462;-73
2022/05/29 00:24:30;;;;;;;5.50;5.30;;;;;;;7.41;87.33;101279.66;6027046;23;20165;-75
2022/05/29 00:26:56;;;;;;;3.92;3.72;;;;;;;7.11;88.40;101224.84;6011413;23;20066;-75
2022/05/29 00:29:23;;;;;;;3.80;3.60;;;;;;;7.36;88.25;101259.78;6024380;23;20262;-76
2022/05/29 00:31:52;;;;;;;3.90;3.80;;;;;;;7.24;88.04;101243.63;6029934;23;20011;-74
2022/05/29 00:34:19;;;;;;;3.78;3.67;;;;;;;7.10;88.51;101228.38;6028762;23;20086;-73
2022/05/29 00:36:46;;;;;;;3.97;3.78;;;;;;;7.26;89.19;101260.09;5996394;23;20023;-75
2022/05/29 00:39:14;;;;;;;3.72;3.63;;;;;;;7.20;88.98;101255.91;5996718;23;20226;-73
2022/05/29 00:41:40;;;;;;;5.25;5.05;;;;;;;7.05;89.70;101232.84;5985515;23;20728;-74
2022/05/29 00:44:13;;;;;;;3.75;3.65;;;;;;;7.14;89.30;101250.88;6016003;23;20468;-74
2022/05/29 00:46:54;;;;;;;5.53;5.32;;;;;;;7.11;90.08;101249.19;5977032;23;20112;-74
2022/05/29 00:49:23;;;;;;;3.92;3.78;;;;;;;7.11;90.07;101253.56;6008726;23;20250;-74
2022/05/29 00:51:54;;;;;;;3.80;3.70;;;;;;;7.09;91.25;101250.13;5990105;23;20414;-75
2022/05/29 00:54:22;;;;;;;3.80;3.70;;;;;;;6.72;90.07;101193.78;5989305;23;20030;-75
2022/05/29 00:56:49;;;;;;;3.75;3.65;;;;;;;6.89;90.35;101227.22;5990826;23;20029;-74
2022/05/29 00:59:27;;;;;;;4.00;3.80;;;;;;;6.94;90.93;101241.84;6020607;23;20221;-74
2022/05/29 01:01:56;;;;;;;4.20;4.00;;;;;;;6.71;91.28;101189.47;5995931;23;20388;-74
2022/05/29 01:04:22;;;;;;;3.70;3.60;;;;;;;7.01;91.63;101250.34;6028078;23;20217;-74
2022/05/29 01:06:49;;;;;;;4.30;4.00;;;;;;;6.96;91.45;101247.88;6001437;23;20066;-74
2022/05/29 01:09:16;;;;;;;5.35;5.15;;;;;;;6.91;90.94;101234.09;5996252;23;20051;-74
2022/05/29 01:12:06;;;;;;;5.28;5.07;;;;;;;6.85;91.65;101238.63;6021987;23;20074;-75
2022/05/29 01:14:38;;;;;;;5.18;4.97;;;;;;;6.82;91.91;101229.16;5992797;23;20103;-73
2022/05/29 01:17:44;;;;;;;3.60;3.50;;;;;;;6.56;95.38;101186.38;6022534;23;20093;-74
2022/05/29 01:20:35;;;;;;;3.70;3.60;;;;;;;6.47;94.89;101172.75;5952492;23;20051;-74
2022/05/29 01:23:28;;;;;;;3.53;3.42;;;;;;;5.82;94.43;101064.16;6021399;23;20025;-75
2022/05/29 01:26:28;;;;;;;3.55;3.45;;;;;;;6.72;95.29;101228.53;5965012;23;20012;-73
2022/05/29 01:28:59;;;;;;;3.70;3.60;;;;;;;6.53;95.82;101204.72;5995637;23;20027;-74
2022/05/29 01:31:56;;;;;;;3.90;3.78;;;;;;;6.57;96.15;101229.84;5968552;23;20066;-75
2022/05/29 01:34:33;;;;;;;3.60;3.50;;;;;;;6.33;96.41;101207.84;6014590;23;20082;-73
2022/05/29 01:37:15;;;;;;;3.70;3.60;;;;;;;6.45;96.05;101227.53;6013938;23;20091;-74
2022/05/29 01:40:11;;;;;;;5.28;5.07;;;;;;;6.39;97.22;101225.97;5990331;23;20082;-75
2022/05/29 01:42:49;;;;;;;5.25;5.05;;;;;;;6.36;97.44;101236.47;5984820;23;20089;-74
2022/05/29 01:45:32;;;;;;;3.72;3.63;;;;;;;6.33;97.21;101227.84;6002280;23;20371;-73
2022/05/29 01:48:09;;;;;;;3.70;3.60;;;;;;;6.29;97.62;101234.03;6020761;23;20459;-74
2022/05/29 01:50:53;;;;;;;3.65;3.55;;;;;;;6.08;98.17;101204.19;5962152;23;20102;-74
2022/05/29 01:53:28;;;;;;;3.80;3.70;;;;;;;5.90;98.46;101171.59;6022399;23;20085;-74
2022/05/29 01:55:59;;;;;;;3.70;3.60;;;;;;;6.15;98.83;101222.25;6007396;23;20042;-74
2022/05/29 01:58:50;;;;;;;3.78;3.65;;;;;;;6.13;99.55;101213.59;6036754;23;20361;-76
2022/05/29 02:01:18;;;;;;;3.60;3.50;;;;;;;6.11;100.00;101220.56;5964507;23;20258;-76
2022/05/29 02:03:50;;;;;;;3.70;3.60;;;;;;;5.97;99.55;101200.09;6031017;23;20254;-74
2022/05/29 02:06:23;;;;;;;3.80;3.70;;;;;;;5.79;100.00;101175.34;5989759;23;20016;-73
2022/05/29 02:09:06;;;;;;;3.60;3.50;;;;;;;6.04;100.00;101221.66;6022550;23;20124;-73
2022/05/29 02:11:32;;;;;;;;;;;;;;;6.03;100.00;101216.47;5989715;23;20018;-74
2022/05/29 02:14:09;;;;;;;3.88;3.75;;;;;;;6.01;100.00;101210.44;6024487;23;20046;-74
2022/05/29 02:16:54;;;;;;;4.97;4.78;;;;;;;6.02;100.00;101204.34;5992943;23;20102;-73
2022/05/29 02:20:03;;;;;;;3.60;3.50;;;;;;;6.02;100.00;101206.94;6020625;23;20082;-74
2022/05/29 02:22:32;;;;;;;3.88;3.72;;;;;;;6.06;100.00;101211.19;5876687;24;20406;-75
2022/05/29 02:25:15;;;;;;;3.30;3.20;;;;;;;5.86;100.00;101164.75;5913560;24;20024;-74
2022/05/29 02:27:42;;;;;;;4.68;4.47;;;;;;;6.17;100.00;101202.22;5956507;23;20095;-75
2022/05/29 02:30:09;;;;;;;3.50;3.40;;;;;;;5.96;100.00;101154.09;6019617;23;20018;-73
2022/05/29 02:32:38;;;;;;;4.97;4.78;;;;;;;6.35;100.00;101194.78;6020952;23;20023;-75
2022/05/29 02:35:11;;;;;;;3.40;3.30;;;;;;;6.44;100.00;101189.34;6026863;23;20092;-73
2022/05/29 02:37:59;;;;;;;4.93;4.72;;;;;;;6.49;100.00;101179.63;6051423;23;20029;-74
2022/05/29 02:40:34;;;;;;;4.15;3.95;;;;;;;6.67;100.00;101180.00;6022381;23;20046;-75
2022/05/29 02:43:13;;;;;;;3.50;3.40;;;;;;;6.72;100.00;101184.22;6052528;23;20016;-74
2022/05/29 02:45:50;;;;;;;4.95;4.75;;;;;;;6.76;100.00;101178.00;6027372;23;20220;-75
2022/05/29 02:48:32;;;;;;;3.55;3.45;;;;;;;6.79;100.00;101183.16;6042771;23;20043;-74
2022/05/29 02:51:06;;;;;;;3.90;3.70;;;;;;;6.84;100.00;101180.41;6032181;23;20034;-74
2022/05/29 02:53:34;;;;;;;4.60;4.40;;;;;;;6.73;100.00;101158.97;6063185;23;20050;-74
2022/05/29 02:56:04;;;;;;;3.70;3.60;;;;;;;6.91;100.00;101178.44;6040801;23;20027;-74
2022/05/29 02:58:33;;;;;;;4.68;4.47;;;;;;;6.92;99.50;101164.53;6034827;23;20019;-74
2022/05/29 03:01:24;;;;;;;3.50;3.40;;;;;;;7.01;98.46;101176.44;6025235;23;20032;-73
2022/05/29 03:04:22;;;;;;;3.47;3.38;;;;;;;7.04;98.29;101169.38;6045480;23;20316;-75
2022/05/29 03:06:57;;;;;;;17.02;16.13;;;;;;;6.03;99.23;101006.28;5970946;23;20421;-76
2022/05/29 03:09:41;;;;;;;3.47;3.38;;;;;;;7.04;98.42;101163.31;5996780;23;20042;-77
2022/05/29 03:12:33;;;;;;;3.60;3.50;;;;;;;6.81;99.49;101133.50;6031366;23;20026;-74
2022/05/29 03:15:33;;;;;;;3.50;3.40;;;;;;;6.78;99.74;101129.25;6023544;23;20037;-74
2022/05/29 03:18:21;;;;;;;3.60;3.50;;;;;;;7.04;99.76;101168.53;6026683;23;20035;-75
2022/05/29 03:21:09;;;;;;;3.40;3.30;;;;;;;7.06;99.86;101166.72;6051081;23;20085;-74
2022/05/29 03:23:55;;;;;;;4.90;4.70;;;;;;;7.02;99.23;101173.78;6020667;23;20518;-74
2022/05/29 03:26:32;;;;;;;3.60;3.40;;;;;;;6.69;100.00;101121.69;6047033;23;20054;-76
2022/05/29 03:29:09;;;;;;;3.58;3.47;;;;;;;6.91;99.99;101153.22;6034306;23;20037;-74
2022/05/29 03:31:38;;;;;;;5.10;4.90;;;;;;;7.08;99.91;101170.13;6051385;23;20077;-74
2022/05/29 03:34:07;;;;;;;3.72;3.53;;;;;;;7.02;99.15;101150.28;6029071;23;20050;-75
2022/05/29 03:36:33;;;;;;;4.70;4.50;;;;;;;6.99;98.69;101134.72;6039900;23;20353;-74
2022/05/29 03:39:00;;;;;;;3.50;3.40;;;;;;;7.14;99.52;101156.91;6048989;23;20030;-73
2022/05/29 03:41:59;;;;;;;4.10;3.95;;;;;;;7.27;99.87;101168.66;6017702;23;20032;-74
2022/05/29 03:44:26;;;;;;;3.67;3.55;;;;;;;7.30;98.80;101176.41;6025591;23;20024;-74
2022/05/29 03:46:52;;;;;;;3.53;3.42;;;;;;;6.83;98.83;101105.63;6057600;23;20230;-71
2022/05/29 03:49:21;;;;;;;3.47;3.38;;;;;;;7.08;99.46;101129.22;6036732;23;20006;-70
2022/05/29 03:51:47;;;;;;;3.70;3.60;;;;;;;6.98;98.38;101102.56;6061140;23;20461;-72
2022/05/29 03:54:14;;;;;;;3.70;3.60;;;;;;;6.51;98.40;101010.09;6022509;23;20022;-71
2022/05/29 03:56:40;;;;;;;4.72;4.53;;;;;;;7.49;98.50;101165.38;6048064;23;20368;-73
2022/05/29 03:59:07;;;;;;;3.70;3.60;;;;;;;7.26;98.63;101112.16;6024494;23;20027;-72
2022/05/29 04:01:34;;;;;;;4.28;4.07;;;;;;;7.53;98.68;101170.44;6054104;23;20379;-72
2022/05/29 04:04:01;;;;;;;3.50;3.40;;;;;;;7.59;98.54;101165.03;6029206;23;20478;-70
2022/05/29 04:06:34;;;;;;;4.25;4.05;;;;;;;7.66;99.31;101157.88;6046317;23;20032;-73
2022/05/29 04:12:05;;;;;;;4.00;3.80;;;;;;;7.54;98.55;101130.38;6054657;23;20098;-71
2022/05/29 04:14:38;;;;;;;4.95;4.75;;;;;;;7.66;97.67;101118.69;6052188;23;20086;-74
2022/05/29 04:17:05;;;;;;;3.60;3.50;;;;;;;7.79;96.59;101129.56;6027973;23;20038;-71
2022/05/29 04:19:32;;;;;;;5.60;5.15;;;;;;;8.02;96.52;101149.69;6048223;23;20045;-72
2022/05/29 04:21:59;;;;;;;3.58;3.47;;;;;;;8.16;95.01;101144.00;6031768;23;20490;-73
2022/05/29 04:24:26;;;;;;;3.60;3.50;;;;;;;8.26;95.38;101142.75;6032873;23;20431;-73
2022/05/29 04:26:53;;;;;;;3.90;3.70;;;;;;;8.13;93.48;101118.78;6037174;23;20026;-71
2022/05/29 04:29:20;;;;;;;4.10;3.90;;;;;;;8.35;93.54;101141.56;6050201;23;20720;-74
2022/05/29 04:34:36;;;;;;;3.50;3.40;;;;;;;8.48;93.57;101139.38;6042435;23;20030;-70
2022/05/29 04:37:03;;;;;;;3.90;3.70;;;;;;;8.55;92.79;101136.50;6011996;23;20469;-70
2022/05/29 04:39:35;;;;;;;3.70;3.60;;;;;;;8.81;92.70;101139.06;6033109;23;20027;-72
2022/05/29 04:42:02;;;;;;;4.20;4.00;;;;;;;8.95;91.25;101129.78;5974299;23;20042;-72
2022/05/29 04:44:30;;;;;;;4.47;4.28;;;;;;;9.10;89.80;101132.69;6019105;23;20023;-73
2022/05/29 04:47:01;;;;;;;3.80;3.70;;;;;;;9.13;89.11;101128.19;5975601;23;20032;-71
2022/05/29 04:49:28;;;;;;;4.82;4.63;;;;;;;9.10;88.50;101114.38;6035464;23;20387;-74
2022/05/29 04:51:56;;;;;;;4.30;4.10;;;;;;;9.18;88.48;101128.88;5998778;23;20516;-74
2022/05/29 04:54:22;;;;;;;3.60;3.50;;;;;;;9.11;87.56;101118.72;6033661;23;20219;-71
2022/05/29 04:56:49;;;;;;;3.88;3.67;;;;;;;9.19;88.63;101129.72;5977363;23;20403;-72
2022/05/29 04:59:15;;;;;;;3.78;3.67;;;;;;;9.19;87.90;101127.13;5999680;23;20006;-71
2022/05/29 05:01:42;;;;;;;5.82;5.53;;;;;;;9.09;89.36;101126.63;6015000;23;20476;-74
2022/05/29 05:04:09;;;;;;;3.80;3.70;;;;;;;9.12;89.83;101121.28;6001283;23;20098;-71
2022/05/29 05:06:35;;;;;;;4.97;4.78;;;;;;;9.06;90.47;101116.28;6003589;23;20019;-68
2022/05/29 05:09:02;;;;;;;3.88;3.67;;;;;;;9.15;90.31;101122.91;6024451;23;20030;-68
2022/05/29 05:11:29;;;;;;;4.63;4.43;;;;;;;9.15;90.01;101120.28;6023139;23;20046;-68
2022/05/29 05:13:55;;;;;;;4.20;4.00;;;;;;;8.88;92.31;101110.00;6002856;23;20018;-67
2022/05/29 05:16:21;;;;;;;4.18;3.97;;;;;;;9.00;93.58;101121.75;6009981;23;20021;-68
2022/05/29 05:18:48;;;;;;;4.00;3.80;;;;;;;9.18;91.74;101115.78;5999356;23;20337;-68
2022/05/29 05:21:14;;;;;;;4.07;3.88;;;;;;;9.17;90.67;101093.13;5998592;23;20011;-68
2022/05/29 05:23:41;;;;;;;4.95;4.75;;;;;;;9.06;91.12;101081.38;6001183;23;20298;-68
2022/05/29 05:26:09;;;;;;;4.72;4.53;;;;;;;9.37;90.24;101110.66;6002020;23;20429;-68
2022/05/29 05:28:36;;;;;;;5.05;4.85;;;;;;;9.39;90.77;101110.59;5996554;23;20412;-68
2022/05/29 05:31:03;;;;;;;3.95;3.83;;;;;;;9.40;90.72;101114.91;5994386;23;20027;-68
2022/05/29 05:33:31;;;;;;;4.82;4.63;;;;;;;9.29;89.84;101104.03;6019388;23;20024;-67
2022/05/29 05:35:58;;;;;;;4.20;4.00;;;;;;;9.36;90.18;101100.22;5995197;23;20038;-69
2022/05/29 05:38:24;;;;;;;3.80;3.70;;;;;;;9.44;89.96;101102.53;5992232;23;20027;-67
2022/05/29 05:40:51;;;;;;;3.60;3.50;;;;;;;9.55;89.24;101097.72;5998245;23;20089;-68
2022/05/29 05:43:19;;;;;;;3.97;3.80;;;;;;;9.55;90.33;101088.09;5989812;23;20026;-67
2022/05/29 05:45:47;;;;;;;4.68;4.47;;;;;;;9.53;88.54;101076.81;6018122;23;20039;-68
2022/05/29 05:48:14;;;;;;;4.05;3.85;;;;;;;9.38;89.70;101086.19;5990736;23;20016;-69
2022/05/29 05:50:41;;;;;;;5.22;5.03;;;;;;;9.36;89.90;101072.28;5996911;23;20403;-69
2022/05/29 05:53:07;;;;;;;3.80;3.70;;;;;;;9.71;89.52;101108.44;5999584;23;20016;-70
2022/05/29 05:55:36;;;;;;;5.30;5.10;;;;;;;9.73;88.35;101103.97;6019903;23;20034;-68
2022/05/29 05:58:03;;;;;;;4.18;3.97;;;;;;;9.63;88.24;101116.59;5997334;23;20027;-68
2022/05/29 06:00:30;;;;;;;4.85;4.65;;;;;;;9.57;87.92;101107.22;6018583;23;20023;-68
2022/05/29 06:02:56;;;;;;;3.72;3.63;;;;;;;9.58;87.97;101105.44;5994931;23;20018;-68
2022/05/29 06:05:23;;;;;;;3.80;3.70;;;;;;;9.67;87.41;101099.00;5993632;23;20245;-69
2022/05/29 06:07:50;;;;;;;3.80;3.65;;;;;;;9.75;86.77;101096.91;5992183;23;21216;-69
2022/05/29 06:10:16;;;;;;;4.00;3.83;;;;;;;9.93;86.42;101113.59;6024168;23;20428;-69
2022/05/29 06:12:43;;;;;;;5.07;4.88;;;;;;;10.13;86.96;101115.38;5990707;23;20296;-69
2022/05/29 06:15:10;;;;;;;3.80;3.70;;;;;;;10.32;86.89;101107.56;6029070;23;20464;-69
2022/05/29 06:17:36;;;;;;;5.35;5.15;;;;;;;10.35;84.22;101110.06;6022589;23;20022;-70
2022/05/29 06:20:03;;;;;;;4.00;3.83;;;;;;;10.47;83.24;101085.88;6003829;23;20030;-69
2022/05/29 06:22:30;;;;;;;5.20;4.97;;;;;;;10.73;82.28;101110.94;6024827;23;20006;-68
2022/05/29 06:24:56;;;;;;;3.83;3.72;;;;;;;10.56;81.49;101068.84;5994532;23;20038;-69
2022/05/29 06:27:22;;;;;;;4.10;3.90;;;;;;;11.31;81.30;101111.75;6028109;23;20412;-69
2022/05/29 06:29:49;;;;;;;4.32;4.13;;;;;;;11.51;79.85;101114.22;5971851;23;20159;-69
2022/05/29 06:32:15;;;;;;;4.15;3.95;;;;;;;11.48;79.59;101095.97;6025026;23;20026;-70
2022/05/29 06:34:42;;;;;;;5.50;5.30;;;;;;;11.50;78.79;101067.84;6020540;23;20030;-68
2022/05/29 06:37:08;;;;;;;4.47;4.28;;;;;;;11.82;76.17;101119.72;6056062;23;20026;-68
2022/05/29 06:39:36;;;;;;;5.80;5.55;;;;;;;11.58;78.76;101115.63;6023235;23;20050;-68
2022/05/29 06:42:03;;;;;;;4.60;4.40;;;;;;;11.55;79.54;101076.34;6037497;23;20032;-70
2022/05/29 06:44:30;;;;;;;5.25;5.05;;;;;;;11.43;78.65;101050.69;6029282;23;20029;-68
2022/05/29 06:46:56;;;;;;;4.50;4.30;;;;;;;11.81;77.41;101116.25;6033381;23;20369;-67
2022/05/29 06:49:23;;;;;;;4.40;4.20;;;;;;;11.70;77.85;101064.19;6049277;23;20038;-68
2022/05/29 06:51:49;;;;;;;4.50;4.30;;;;;;;11.96;77.03;101118.13;6047608;23;20089;-68
2022/05/29 06:54:15;;;;;;;4.47;4.28;;;;;;;11.87;78.16;101112.47;6046416;23;20349;-68
2022/05/29 06:56:42;;;;;;;6.20;5.90;;;;;;;11.26;78.77;101053.28;6034062;23;20115;-69
2022/05/29 06:59:08;;;;;;;6.03;4.78;;;;;;;11.45;79.31;101111.91;6056146;23;20032;-68
2022/05/29 07:07:14;;;;;;;4.38;4.18;;;;;;;11.07;84.15;101085.72;6026480;23;20061;-69
2022/05/29 07:09:41;;;;;;;6.13;5.82;;;;;;;11.32;85.53;101105.53;6049988;23;20032;-69
2022/05/29 07:12:26;;;;;;;4.43;4.22;;;;;;;11.05;84.03;101084.09;6058431;23;20089;-68
2022/05/29 07:14:59;;;;;;;4.30;4.10;;;;;;;11.06;83.31;101105.00;6019271;23;20492;-69
2022/05/29 07:17:27;;;;;;;4.78;4.57;;;;;;;10.94;83.39;101090.72;6050978;23;20038;-70
2022/05/29 07:19:54;;;;;;;4.60;4.40;;;;;;;11.02;84.67;101111.34;6048251;23;20041;-68
2022/05/29 07:22:21;;;;;;;4.88;4.57;;;;;;;11.43;83.84;101108.50;6024126;23;20014;-70
2022/05/29 07:24:47;;;;;;;4.38;4.18;;;;;;;11.38;80.64;101082.47;6030045;23;20059;-70
2022/05/29 07:27:14;;;;;;;4.80;4.60;;;;;;;11.45;80.88;101101.41;6040859;23;20039;-70
2022/05/29 07:29:40;;;;;;;6.28;5.97;;;;;;;11.62;80.11;101110.22;6028867;23;20485;-70
2022/05/29 07:32:07;;;;;;;4.53;4.32;;;;;;;11.41;80.04;101056.97;6059560;23;20107;-71
2022/05/29 07:34:34;;;;;;;5.68;5.43;;;;;;;11.09;78.40;101035.75;6045534;23;20034;-68
2022/05/29 07:37:02;;;;;;;4.68;4.47;;;;;;;11.67;77.98;101106.44;6064692;23;20022;-71
2022/05/29 07:39:36;;;;;;;5.32;5.10;;;;;;;10.25;78.50;100891.03;6019403;23;20241;-71
2022/05/29 07:44:50;;;;;;;4.40;4.20;;;;;;;11.23;76.89;101028.03;6055481;23;20165;-69
2022/05/29 07:47:16;;;;;;;4.43;4.22;;;;;;;11.79;77.89;101081.31;6018817;23;20042;-71
2022/05/29 07:49:43;;;;;;;9.77;5.85;;;;;;;12.51;75.10;101109.13;6039649;23;20082;-69
2022/05/29 07:52:10;;;;;;;4.85;4.65;;;;;;;11.75;73.51;100929.88;6026372;23;20516;-70
2022/05/29 07:54:36;;;;;;;6.05;5.75;;;;;;;13.02;72.59;101108.97;6046370;23;20494;-69
2022/05/29 07:57:04;;;;;;;4.60;4.40;;;;;;;12.85;72.85;101112.56;6029770;23;20396;-69
2022/05/29 07:59:31;;;;;;;6.15;5.85;;;;;;;12.97;72.42;101111.03;6052524;23;20492;-71
2022/05/29 08:01:57;;;;;;;4.55;4.35;;;;;;;12.59;73.21;101111.34;6029256;23;20015;-68
2022/05/29 08:04:24;;;;;;;4.60;4.40;;;;;;;13.10;72.64;101100.66;6053768;23;20026;-68
2022/05/29 08:06:50;;;;;;;4.80;4.60;;;;;;;12.86;72.03;101081.81;6022918;23;20482;-70
2022/05/29 08:09:18;;;;;;;4.82;4.63;;;;;;;13.21;70.71;101081.59;6046285;23;20167;-68
2022/05/29 08:11:45;;;;;;;5.65;5.40;;;;;;;13.10;70.19;101069.03;6020669;23;20059;-68
2022/05/29 08:14:11;;;;;;;4.93;4.72;;;;;;;13.45;69.18;101103.09;6020853;23;20029;-68
2022/05/29 08:16:39;;;;;;;6.57;6.28;;;;;;;13.70;68.82;101103.38;6051258;23;20022;-70
2022/05/29 08:19:07;;;;;;;4.72;4.53;;;;;;;13.66;67.39;101101.00;6023011;23;20025;-69
2022/05/29 08:21:34;;;;;;;6.15;5.85;;;;;;;13.17;68.38;101078.31;6046824;23;20036;-68
2022/05/29 08:32:40;;;;;;;5.97;5.68;;;;;;;13.88;66.18;101080.31;6052521;23;20030;-70
2022/05/29 08:35:07;;;;;;;4.68;4.47;;;;;;;13.94;65.99;101081.75;6008095;23;20033;-72
2022/05/29 08:37:36;;;;;;;5.93;5.65;;;;;;;14.00;66.64;101077.91;6025747;23;20113;-69
2022/05/29 08:40:04;;;;;;;4.97;4.78;;;;;;;13.86;66.54;101074.28;6052211;23;20259;-68
2022/05/29 08:42:31;;;;;;;5.55;5.35;;;;;;;13.62;67.33;101086.31;6023775;23;20173;-69
2022/05/29 08:44:59;;;;;;;5.00;4.80;;;;;;;13.53;67.52;101074.47;6059202;23;20022;-69
2022/05/29 08:47:28;;;;;;;4.70;4.50;;;;;;;13.48;67.35;101066.00;6045510;23;20115;-69
2022/05/29 08:50:01;;;;;;;5.10;4.90;;;;;;;14.22;66.46;101069.50;6020685;23;20444;-69
2022/05/29 08:52:50;;;;;;;5.07;4.88;;;;;;;14.87;62.30;101056.59;6022524;23;20304;-70
2022/05/29 08:55:31;;;;;;;5.30;5.10;;;;;;;15.07;57.38;101047.38;6042749;23;20030;-69
2022/05/29 08:58:19;;;;;;;4.88;4.68;;;;;;;13.51;58.22;100882.13;6022662;23;20050;-73
2022/05/29 09:01:09;;;;;;;4.88;4.68;;;;;;;15.20;56.04;101052.72;6047436;23;20026;-69
2022/05/29 09:04:00;;;;;;;5.53;5.32;;;;;;;15.30;55.49;101053.81;6036959;23;20263;-68
2022/05/29 09:06:45;;;;;;;5.22;5.03;;;;;;;14.46;58.93;101031.00;6041536;23;20038;-68
2022/05/29 09:09:24;;;;;;;4.90;4.70;;;;;;;14.38;61.93;101027.16;6030223;23;20348;-69
2022/05/29 09:11:56;;;;;;;5.13;4.90;;;;;;;13.93;63.43;101021.97;6048544;23;20445;-72
2022/05/29 09:14:33;;;;;;;4.90;4.70;;;;;;;14.03;63.62;101051.31;6024963;23;20188;-68
2022/05/29 09:17:04;;;;;;;4.80;4.60;;;;;;;13.43;65.86;101050.47;6052270;23;20081;-69
2022/05/29 09:19:47;;;;;;;5.63;5.43;;;;;;;13.31;66.46;101056.44;6021026;23;20227;-70
2022/05/29 09:22:34;;;;;;;5.07;4.88;;;;;;;12.75;67.17;101037.63;6036302;23;20046;-69
2022/05/29 09:25:04;;;;;;;5.00;4.80;;;;;;;12.78;68.51;101055.88;6026598;23;20406;-69
2022/05/29 09:27:31;;;;;;;5.80;5.53;;;;;;;12.79;66.01;101052.34;6015779;23;20538;-69
2022/05/29 09:29:58;;;;;;;4.88;4.68;;;;;;;11.43;70.63;100850.13;6044875;23;20022;-71
2022/05/29 09:32:30;;;;;;;4.97;4.78;;;;;;;12.37;76.69;101067.75;6035100;23;20019;-70
2022/05/29 09:35:00;;;;;;;4.63;4.43;;;;;;;12.31;79.11;101060.19;6027186;23;20473;-69
2022/05/29 09:37:40;;;;;;;4.85;4.65;;;;;;;11.83;82.67;101030.25;6015468;23;20019;-68
2022/05/29 09:40:18;;;;;;;4.55;4.35;;;;;;;11.72;86.46;101038.69;6047979;23;20013;-68
2022/05/29 09:42:44;;;;;;;5.65;5.45;;;;;;;12.02;87.54;101058.25;6046048;23;20341;-69
2022/05/29 09:45:33;;;;;;;4.60;4.40;;;;;;;11.43;91.96;101029.66;6024706;23;20480;-70
2022/05/29 09:50:58;;;;;;;4.72;4.53;;;;;;;12.02;89.93;101021.41;6029864;23;20030;-68
2022/05/29 09:53:34;;;;;;;5.05;4.85;;;;;;;12.40;84.98;101037.78;6054132;23;20088;-73
2022/05/29 09:56:04;;;;;;;4.70;4.50;;;;;;;12.36;84.37;101016.03;6036576;23;20420;-72
2022/05/29 09:58:51;;;;;;;6.03;5.57;;;;;;;12.63;82.15;101038.28;6061120;23;20029;-73
2022/05/29 10:01:34;;;;;;;5.80;5.40;;;;;;;12.36;79.38;101047.63;6019213;23;20026;-70
2022/05/29 10:04:03;;;;;;;4.63;4.43;;;;;;;12.67;79.57;101042.44;6043827;23;20054;-73
2022/05/29 10:06:34;;;;;;;5.22;5.03;;;;;;;13.24;78.48;101042.72;6046231;23;20026;-68
2022/05/29 10:09:11;;;;;;;4.90;4.70;;;;;;;13.52;75.99;101039.38;6052510;23;20035;-73
2022/05/29 10:11:38;;;;;;;6.38;6.07;;;;;;;13.76;77.49;100994.84;6014045;23;20022;-69
2022/05/29 10:14:24;;;;;;;4.75;4.55;;;;;;;14.67;75.24;101030.63;6053214;23;20126;-71
2022/05/29 10:16:53;;;;;;;4.93;4.70;;;;;;;15.18;74.39;101003.53;6045221;23;20482;-71
2022/05/29 10:19:39;;;;;;;4.80;4.60;;;;;;;15.26;68.87;101038.25;6051987;23;20013;-71
2022/05/29 10:22:13;;;;;;;4.95;4.75;;;;;;;14.83;71.30;101019.91;6053967;23;20420;-74
2022/05/29 10:24:41;;;;;;;5.97;5.68;;;;;;;15.32;70.02;101030.75;6031540;23;20026;-72
2022/05/29 10:27:23;;;;;;;4.90;4.70;;;;;;;15.43;69.37;101037.13;6053815;23;20017;-73
2022/05/29 10:29:56;;;;;;;5.35;5.07;;;;;;;15.51;67.92;101040.94;6018933;23;20057;-70
2022/05/29 10:32:28;;;;;;;5.53;5.22;;;;;;;14.99;66.86;101043.53;6048118;23;20199;-72
2022/05/29 10:35:15;;;;;;;5.30;5.10;;;;;;;14.50;70.22;101035.16;6029616;23;20333;-71
2022/05/29 10:37:44;;;;;;;6.00;5.70;;;;;;;14.39;73.08;101026.22;6019117;23;20039;-73
2022/05/29 10:40:25;;;;;;;5.00;4.80;;;;;;;14.41;73.95;101026.97;6020728;23;20015;-73
2022/05/29 10:42:56;;;;;;;4.70;4.50;;;;;;;14.18;73.50;100960.63;6016116;23;20075;-73
2022/05/29 10:45:31;;;;;;;4.70;4.50;;;;;;;14.52;75.14;101024.50;6053327;23;20057;-73
2022/05/29 10:48:12;;;;;;;4.80;4.60;;;;;;;14.46;73.46;100998.47;6020536;23;20082;-70
2022/05/29 10:51:05;;;;;;;6.22;5.93;;;;;;;14.93;68.90;101015.72;6047853;23;20057;-68
2022/05/29 10:54:08;;;;;;;5.53;5.32;;;;;;;15.43;65.37;101013.31;6023475;23;20035;-69
2022/05/29 10:57:03;;;;;;;5.25;5.05;;;;;;;15.22;65.58;101007.69;6034704;23;20025;-71
2022/05/29 11:00:00;;;;;;;6.20;5.90;;;;;;;16.42;61.50;101015.31;5996245;23;20016;-70
2022/05/29 11:06:08;;;;;;;5.70;5.50;;;;;;;15.85;60.68;101017.50;6017998;23;20335;-69
2022/05/29 11:09:02;;;;;;;6.32;6.03;;;;;;;14.64;63.29;100849.41;6041084;23;20089;-68
2022/05/29 11:11:32;;;;;;;5.10;4.90;;;;;;;15.44;63.43;101025.59;6048908;23;20098;-74
2022/05/29 11:14:01;;;;;;;4.80;4.60;;;;;;;14.54;64.06;101025.25;6020354;23;20367;-73
2022/05/29 11:16:53;;;;;;;5.35;5.05;;;;;;;13.61;66.51;101024.81;6055462;23;20021;-74
2022/05/29 11:19:45;;;;;;;6.55;6.25;;;;;;;11.88;83.30;101041.38;6022967;23;20012;-69
2022/05/29 11:22:30;;;;;;;4.72;4.53;;;;;;;10.58;100.00;101036.41;6041757;23;20022;-69
2022/05/29 11:25:16;;;;;;;4.63;4.43;;;;;;;9.58;100.00;100963.94;6052444;23;20030;-70
2022/05/29 11:27:57;;;;;;;5.93;5.65;;;;;;;9.84;100.00;101011.75;6026155;23;20242;-71
2022/05/29 11:30:34;;;;;;;4.90;4.70;;;;;;;9.62;100.00;100969.91;6060549;23;20460;-70
2022/05/29 11:33:12;;;;;;;4.30;4.10;;;;;;;10.07;100.00;101008.13;6031245;23;20164;-72
2022/05/29 11:36:04;;;;;;;5.47;5.28;;;;;;;10.67;100.00;101008.84;6048834;23;20272;-73
2022/05/29 11:38:53;;;;;;;5.32;5.13;;;;;;;10.70;100.00;101003.44;6048424;23;20032;-72
2022/05/29 11:41:35;;;;;;;4.63;4.43;;;;;;;11.03;100.00;100981.75;6050375;23;20074;-71
2022/05/29 11:44:07;;;;;;;4.43;4.23;;;;;;;11.09;100.00;100951.69;6021190;23;20031;-69
2022/05/29 11:52:40;;;;;;;4.70;4.50;;;;;;;12.89;100.00;100952.53;6053119;23;20022;-70
2022/05/29 11:55:15;;;;;;;4.60;4.40;;;;;;;13.24;100.00;100966.31;6038100;23;20253;-71
2022/05/29 11:57:48;;;;;;;6.05;5.75;;;;;;;12.80;85.63;100945.19;6045113;23;20016;-71
2022/05/29 12:00:36;;;;;;;4.43;4.22;;;;;;;12.40;89.65;100774.56;6029743;23;20746;-72
2022/05/29 12:03:20;;;;;;;4.40;4.20;;;;;;;14.28;94.11;100945.06;6048254;23;20050;-72
2022/05/29 12:05:51;;;;;;;4.65;4.45;;;;;;;14.51;87.20;100941.78;6015301;23;20041;-73
2022/05/29 12:08:46;;;;;;;4.70;4.50;;;;;;;14.70;87.03;100943.25;6041803;23;20447;-71
2022/05/29 12:11:33;;;;;;;5.40;5.20;;;;;;;14.57;84.91;100911.50;6002840;23;20377;-71
2022/05/29 12:14:08;;;;;;;4.80;4.60;;;;;;;15.23;87.70;100936.16;6050869;23;20081;-71
2022/05/29 12:16:37;;;;;;;4.60;4.40;;;;;;;15.75;86.88;100900.00;6022486;23;20093;-69
2022/05/29 12:19:15;;;;;;;4.90;4.70;;;;;;;15.85;82.62;100877.22;6025373;23;20042;-71
2022/05/29 12:21:44;;;;;;;5.05;4.85;;;;;;;16.14;75.32;100929.91;6049778;23;20049;-70
2022/05/29 12:24:16;;;;;;;5.45;5.22;;;;;;;15.51;73.42;100898.09;6021123;23;20095;-70
2022/05/29 12:26:57;;;;;;;4.65;4.45;;;;;;;15.51;76.67;100891.97;6017715;23;20023;-70
2022/05/29 12:29:36;;;;;;;4.80;4.60;;;;;;;14.80;72.19;100939.06;6048728;23;20038;-71
2022/05/29 12:32:09;;;;;;;4.80;4.60;;;;;;;13.65;83.00;100896.22;6022913;23;20037;-70
2022/05/29 12:34:56;;;;;;;5.80;5.55;;;;;;;13.02;87.58;100903.47;6041138;23;20022;-70